Time;durP1;ratioP1;P1;durP2;ratioP2;P2;SDS_P1;SDS_P2;PMS_P1;PMS_P2;Temp;Humidity;BMP_temperature;BMP_pressure;BME280_temperature;BME280_humidity;BME280_pressure;Samples;Min_cycle;Max_cycle;Signal;HPM_P1;HPM_P2
2021/10/01 03:58:56;;;;;;;4.38;2.13;;;;;;;22.30;40.61;99855.69;5301617;23;20154;-81
2021/10/01 04:01:22;;;;;;;8.35;2.63;;;;;;;22.26;40.37;99852.91;4918541;29;20495;-77
2021/10/01 04:03:47;;;;;;;4.03;1.80;;;;;;;22.53;39.95;99844.69;4911117;29;20107;-77
2021/10/01 04:06:13;;;;;;;7.93;2.00;;;;;;;22.31;40.20;99852.47;4911084;29;20038;-90
2021/10/01 04:08:39;;;;;;;7.13;1.85;;;;;;;22.19;40.38;99854.97;4909187;29;20103;-86
2021/10/01 04:11:04;;;;;;;9.80;2.25;;;;;;;22.15;40.63;99857.81;4907739;29;20076;-77
2021/10/01 04:13:30;;;;;;;7.15;1.63;;;;;;;21.71;41.33;99864.94;4909955;29;20116;-86
2021/10/01 04:15:56;;;;;;;6.40;1.90;;;;;;;22.23;40.16;99867.66;4908678;29;20064;-83
2021/10/01 04:18:22;;;;;;;7.75;2.67;;;;;;;22.25;40.13;99865.25;4911933;29;20109;-77
2021/10/01 04:20:47;;;;;;;10.48;2.45;;;;;;;22.22;40.18;99862.50;4910516;29;20040;-77
2021/10/01 04:23:14;;;;;;;12.10;3.20;;;;;;;22.20;40.19;99874.03;4911187;29;20036;-85
2021/10/01 04:25:39;;;;;;;4.30;1.20;;;;;;;22.04;40.65;99885.69;4910834;29;20032;-87
2021/10/01 04:28:07;;;;;;;6.43;1.70;;;;;;;21.74;41.46;99891.13;4913600;29;20035;-84
2021/10/01 04:30:38;;;;;;;7.10;2.30;;;;;;;21.28;42.44;99895.00;4908011;29;20502;-89
2021/10/01 04:33:13;;;;;;;4.15;1.45;;;;;;;20.99;42.91;99900.66;4911038;29;20021;-88
2021/10/01 04:35:40;;;;;;;5.43;1.88;;;;;;;21.68;41.53;99903.88;4901018;29;20033;-89
2021/10/01 04:38:05;;;;;;;8.55;1.95;;;;;;;21.65;41.72;99913.81;4905970;29;20024;-86
2021/10/01 04:40:32;;;;;;;6.85;1.48;;;;;;;20.56;43.65;99908.38;4906613;29;20474;-77
2021/10/01 04:42:58;;;;;;;5.45;2.13;;;;;;;21.59;41.66;99915.44;4902937;29;20383;-87
2021/10/01 04:45:23;;;;;;;11.02;2.95;;;;;;;21.37;42.42;99906.44;4902467;29;20032;-87
2021/10/01 04:47:49;;;;;;;5.80;1.42;;;;;;;21.08;43.43;99933.56;4911082;29;20043;-89
2021/10/01 04:50:14;;;;;;;5.40;1.45;;;;;;;21.21;43.37;99948.59;4918395;29;20077;-89
2021/10/01 04:52:40;;;;;;;4.50;1.00;;;;;;;20.79;43.91;99944.00;4913156;29;20103;-77
2021/10/01 04:55:06;;;;;;;2.80;1.27;;;;;;;20.90;43.29;99950.28;4910356;29;20043;-78
2021/10/01 04:57:31;;;;;;;4.88;1.20;;;;;;;20.41;43.94;99957.53;4906733;29;20032;-78
2021/10/01 04:59:57;;;;;;;6.68;1.08;;;;;;;20.78;43.10;99964.59;4907815;29;20067;-77
2021/10/01 05:02:22;;;;;;;4.97;1.02;;;;;;;20.89;42.51;99965.38;4908241;29;20028;-88
2021/10/01 05:04:48;;;;;;;7.65;1.50;;;;;;;20.92;42.04;99974.88;4906577;29;20031;-79
2021/10/01 05:07:14;;;;;;;3.88;0.90;;;;;;;20.79;41.87;99982.88;4903665;29;20115;-77
2021/10/01 05:09:40;;;;;;;1.50;0.63;;;;;;;20.17;43.03;99986.84;4910960;29;20024;-77
2021/10/01 05:12:06;;;;;;;5.10;1.75;;;;;;;20.60;42.11;99992.41;4907079;29;20065;-79
2021/10/01 05:14:31;;;;;;;3.42;1.27;;;;;;;20.23;42.69;99999.13;4905691;29;20035;-75
2021/10/01 05:16:57;;;;;;;4.40;0.95;;;;;;;20.41;41.94;100007.47;4909713;29;20064;-89
2021/10/01 05:19:22;;;;;;;3.25;0.52;;;;;;;20.13;41.95;100013.00;4909273;29;20037;-91
2021/10/01 05:21:48;;;;;;;3.70;0.88;;;;;;;20.06;41.73;100019.34;4909400;29;20398;-83
2021/10/01 05:24:14;;;;;;;3.85;0.90;;;;;;;20.10;41.11;100042.34;4912049;29;20024;-86
2021/10/01 05:26:41;;;;;;;4.10;1.63;;;;;;;20.41;40.39;100034.44;4903843;29;20027;-85
2021/10/01 05:29:07;;;;;;;3.30;0.80;;;;;;;20.14;40.91;100043.13;4915171;29;20499;-85
2021/10/01 05:31:32;;;;;;;3.60;1.27;;;;;;;20.06;41.15;100049.06;4904977;29;20061;-76
2021/10/01 05:33:58;;;;;;;2.78;0.75;;;;;;;20.10;40.84;100063.72;4908543;29;20083;-75
2021/10/01 05:36:23;;;;;;;3.53;1.00;;;;;;;20.40;40.04;100049.47;4908474;29;20035;-76
2021/10/01 05:38:49;;;;;;;3.25;1.00;;;;;;;19.64;41.29;100067.16;4908482;29;20111;-75
2021/10/01 05:41:14;;;;;;;4.85;0.85;;;;;;;19.88;40.86;100069.22;4906440;29;20076;-76
2021/10/01 05:43:40;;;;;;;3.53;1.50;;;;;;;19.70;40.67;100071.13;4904037;29;20032;-87
2021/10/01 05:46:07;;;;;;;4.20;1.52;;;;;;;19.80;40.61;100078.72;4907829;29;20033;-76
2021/10/01 05:48:35;;;;;;;3.25;1.20;;;;;;;19.80;40.34;100081.47;4906504;29;20391;-77
2021/10/01 05:51:05;;;;;;;3.70;0.75;;;;;;;19.91;39.94;100084.28;4907262;29;20036;-77
2021/10/01 05:53:47;;;;;;;;;;;;;;;19.41;40.57;100087.59;4908692;29;20028;-77
2021/10/01 05:56:13;;;;;;;2.78;0.93;;;;;;;19.81;39.76;100090.59;4909067;29;19922;-77
2021/10/01 05:58:41;;;;;;;6.00;1.20;;;;;;;20.08;38.92;100091.03;4910586;29;20076;-85
2021/10/01 06:01:08;;;;;;;3.60;1.15;;;;;;;20.06;39.16;100085.09;4901211;29;20028;-87
2021/10/01 06:03:34;;;;;;;3.97;0.80;;;;;;;19.80;39.49;100089.81;4899072;29;20554;-75
2021/10/01 06:06:00;;;;;;;3.67;1.20;;;;;;;19.90;39.10;100094.56;4905657;29;20084;-86
2021/10/01 06:08:26;;;;;;;7.72;1.45;;;;;;;19.83;39.42;100089.00;4908537;29;20028;-83
2021/10/01 06:10:51;;;;;;;7.13;1.85;;;;;;;19.73;39.50;100102.84;4907799;29;20471;-76
2021/10/01 06:13:24;;;;;;;5.80;1.02;;;;;;;19.92;39.02;100110.81;4908047;29;20024;-78
2021/10/01 06:15:49;;;;;;;3.10;1.40;;;;;;;19.82;39.14;100115.16;4906352;29;20088;-88
2021/10/01 06:18:15;;;;;;;2.13;0.73;;;;;;;19.72;39.38;100115.09;4905891;29;20020;-75
2021/10/01 06:20:40;;;;;;;5.35;2.10;;;;;;;19.84;39.04;100123.06;4907052;29;20107;-77
2021/10/01 06:23:06;;;;;;;4.10;1.17;;;;;;;19.71;39.46;100124.59;4905067;29;20032;-76
2021/10/01 06:25:32;;;;;;;6.68;1.25;;;;;;;19.56;39.53;100130.03;4907818;29;20079;-77
2021/10/01 06:27:57;;;;;;;4.13;1.30;;;;;;;19.51;39.84;100133.19;4906309;29;20048;-77
2021/10/01 06:30:23;;;;;;;3.03;0.90;;;;;;;19.43;39.81;100136.31;4909773;29;20016;-77
2021/10/01 06:32:48;;;;;;;7.85;1.40;;;;;;;19.65;39.48;100138.84;4907749;29;20028;-75
2021/10/01 06:35:14;;;;;;;5.00;1.00;;;;;;;19.73;39.28;100133.34;4905689;29;20016;-75
2021/10/01 06:37:40;;;;;;;4.18;1.42;;;;;;;19.78;39.24;100142.03;4904372;29;20063;-76
2021/10/01 06:40:06;;;;;;;2.95;0.80;;;;;;;19.81;39.15;100146.81;4897573;29;20087;-75
2021/10/01 06:42:33;;;;;;;6.18;1.77;;;;;;;19.72;39.34;100143.59;4897675;29;20025;-77
2021/10/01 06:45:02;;;;;;;14.38;1.55;;;;;;;19.82;39.10;100147.63;4897485;29;20025;-75
2021/10/01 06:47:40;;;;;;;4.93;1.15;;;;;;;19.79;39.04;100151.16;4896475;29;20033;-75
2021/10/01 06:53:11;;;;;;;3.50;1.20;;;;;;;19.64;39.79;100156.63;4897108;29;20033;-76
2021/10/01 07:23:24;;;;;;;6.97;1.20;;;;;;;19.75;39.70;100203.81;4916416;29;20579;-74
2021/10/01 07:45:10;;;;;;;5.88;1.20;;;;;;;19.31;40.67;100199.16;4907592;29;20031;-74
2021/10/01 08:20:40;;;;;;;6.95;1.20;;;;;;;19.91;38.88;100248.66;4920023;29;20466;-77
2021/10/01 08:23:06;;;;;;;7.95;2.03;;;;;;;19.67;39.15;100249.31;4918696;29;20023;-75
2021/10/01 08:25:33;;;;;;;10.93;2.28;;;;;;;19.64;39.37;100252.81;4913397;29;20024;-75
2021/10/01 08:28:00;;;;;;;6.65;1.77;;;;;;;19.47;39.51;100250.72;4908085;29;20024;-92
2021/10/01 08:30:26;;;;;;;5.00;1.50;;;;;;;19.69;39.22;100260.78;4906042;29;20027;-76
2021/10/01 08:32:52;;;;;;;8.50;1.65;;;;;;;19.90;38.86;100260.13;4898240;29;20025;-77
2021/10/01 08:35:21;;;;;;;5.47;1.08;;;;;;;19.20;39.61;100270.31;4913911;29;20070;-80
2021/10/01 08:37:48;;;;;;;5.95;1.17;;;;;;;19.78;38.75;100266.00;4915761;29;20028;-77
2021/10/01 08:40:14;;;;;;;7.30;1.63;;;;;;;20.27;38.11;100262.69;4896515;29;20028;-77
2021/10/01 08:42:40;;;;;;;7.60;1.65;;;;;;;20.33;38.00;100276.97;4895531;29;20036;-76
2021/10/01 08:45:09;;;;;;;5.13;1.10;;;;;;;20.27;38.01;100281.31;4901913;29;20032;-76
2021/10/01 08:47:36;;;;;;;3.77;1.13;;;;;;;19.81;39.02;100279.09;4901691;29;20104;-76
2021/10/01 08:50:04;;;;;;;8.82;2.67;;;;;;;20.31;38.16;100274.59;4901522;29;20263;-76
2021/10/01 08:52:29;;;;;;;7.97;1.90;;;;;;;20.42;37.75;100280.19;4902279;29;20455;-75
2021/10/01 08:54:56;;;;;;;7.22;1.85;;;;;;;20.23;38.03;100272.97;4896046;29;20037;-77
2021/10/01 08:57:22;;;;;;;5.65;1.40;;;;;;;20.28;38.10;100283.69;4892662;29;20037;-76
2021/10/01 08:59:47;;;;;;;12.85;2.05;;;;;;;20.79;37.23;100263.28;4899218;29;20045;-75
2021/10/01 09:02:14;;;;;;;5.95;1.27;;;;;;;20.96;36.82;100273.63;4886941;29;20040;-72
2021/10/01 09:04:39;;;;;;;8.32;1.65;;;;;;;20.14;38.25;100280.84;4904765;29;20420;-81
2021/10/01 09:07:05;;;;;;;6.55;1.45;;;;;;;20.17;38.27;100266.19;4921850;29;20117;-81
2021/10/01 09:09:45;;;;;;;6.97;1.85;;;;;;;20.32;38.06;100273.38;4918404;29;20044;-76
2021/10/01 09:12:14;;;;;;;4.57;1.42;;;;;;;20.15;38.13;100279.66;4918483;29;20171;-76
2021/10/01 09:14:45;;;;;;;10.48;2.33;;;;;;;20.84;36.92;100275.97;4918482;29;20032;-77
2021/10/01 09:17:17;;;;;;;10.30;3.78;;;;;;;21.04;36.75;100289.09;4917963;29;20171;-78
2021/10/01 09:19:44;;;;;;;6.50;1.40;;;;;;;20.89;37.18;100287.47;4916638;29;20032;-75
2021/10/01 09:22:10;;;;;;;8.02;1.55;;;;;;;20.72;37.58;100289.03;4917748;29;20032;-87
2021/10/01 09:24:42;;;;;;;6.35;1.38;;;;;;;20.71;37.73;100283.88;4917481;29;20038;-76
2021/10/01 09:27:09;;;;;;;6.25;1.92;;;;;;;21.17;36.91;100294.28;4917919;29;20404;-75
2021/10/01 09:29:36;;;;;;;8.30;1.90;;;;;;;21.23;36.89;100293.47;4917464;29;20035;-75
2021/10/01 09:32:12;;;;;;;20.77;3.83;;;;;;;21.41;36.43;100296.28;4917506;29;20032;-75
2021/10/01 09:34:40;;;;;;;4.55;1.42;;;;;;;21.35;36.43;100292.31;4917311;29;20032;-75
2021/10/01 09:37:10;;;;;;;5.32;1.98;;;;;;;21.35;36.64;100283.19;4917407;29;20492;-78
2021/10/01 09:39:41;;;;;;;11.38;2.40;;;;;;;21.23;36.82;100287.91;4917244;29;20565;-76
2021/10/01 09:42:21;;;;;;;9.93;1.73;;;;;;;21.10;37.14;100297.03;4916997;29;20115;-75
2021/10/01 09:44:56;;;;;;;10.80;2.00;;;;;;;21.12;36.58;100294.66;4916970;29;20032;-75
2021/10/01 09:47:34;;;;;;;10.75;2.35;;;;;;;21.73;36.04;100290.72;4917027;29;20483;-76
2021/10/01 09:50:05;;;;;;;8.63;2.30;;;;;;;21.79;35.89;100288.31;4917069;29;20034;-75
2021/10/01 09:52:45;;;;;;;6.55;1.52;;;;;;;21.13;37.22;100299.81;4916737;29;20506;-76
2021/10/01 09:55:13;;;;;;;10.90;2.63;;;;;;;21.42;36.55;100278.44;4917299;29;20082;-80
2021/10/01 09:57:58;;;;;;;20.23;3.15;;;;;;;21.35;36.58;100303.44;4916751;29;20071;-85
2021/10/01 10:00:31;;;;;;;9.95;2.05;;;;;;;21.68;36.05;100298.66;4902215;29;20036;-76
2021/10/01 10:02:57;;;;;;;8.82;1.80;;;;;;;21.30;36.11;100295.50;4909676;29;20028;-76
2021/10/01 10:05:22;;;;;;;6.43;1.70;;;;;;;21.23;35.98;100295.44;4907931;29;20327;-83
2021/10/01 10:07:48;;;;;;;7.43;1.27;;;;;;;21.45;35.24;100308.19;4911776;29;20032;-77
2021/10/01 10:10:14;;;;;;;9.43;2.10;;;;;;;21.57;35.34;100307.81;4909962;29;20024;-80
2021/10/01 10:12:44;;;;;;;8.30;1.80;;;;;;;21.71;34.52;100314.56;4907142;29;20025;-85
2021/10/01 10:15:13;;;;;;;5.47;1.58;;;;;;;21.74;34.75;100320.09;4906192;29;20021;-77
2021/10/01 10:17:50;;;;;;;5.28;1.55;;;;;;;21.65;34.90;100318.91;4900472;29;20051;-76
2021/10/01 10:20:18;;;;;;;11.40;2.58;;;;;;;21.93;34.54;100320.88;4915034;29;20028;-76
2021/10/01 10:22:44;;;;;;;9.20;1.75;;;;;;;22.19;34.10;100317.66;4912404;29;21074;-87
2021/10/01 10:25:09;;;;;;;7.90;2.00;;;;;;;22.21;34.78;100315.25;4933341;29;20130;-76
2021/10/01 10:27:35;;;;;;;7.95;2.00;;;;;;;21.41;35.48;100326.06;4917336;29;20036;-75
2021/10/01 10:30:05;;;;;;;8.90;2.28;;;;;;;21.93;34.58;100321.66;4916477;29;20399;-76
2021/10/01 10:32:32;;;;;;;10.27;2.67;;;;;;;21.74;34.50;100316.53;4933261;29;20047;-76
2021/10/01 10:35:03;;;;;;;10.80;1.73;;;;;;;21.83;34.59;100323.25;4934112;29;20106;-85
2021/10/01 10:37:42;;;;;;;8.23;2.17;;;;;;;22.00;34.30;100332.78;4917436;29;20031;-82
2021/10/01 10:40:16;;;;;;;10.00;2.78;;;;;;;22.39;34.15;100331.91;4917527;29;20032;-88
2021/10/01 10:42:49;;;;;;;7.75;1.65;;;;;;;21.65;34.93;100332.81;4915817;29;20039;-88
2021/10/01 10:45:20;;;;;;;5.53;1.42;;;;;;;22.18;34.25;100335.56;4915973;29;20028;-77
2021/10/01 10:47:52;;;;;;;7.50;1.88;;;;;;;22.25;34.39;100337.53;4916112;29;20369;-81
2021/10/01 10:50:36;;;;;;;5.53;1.83;;;;;;;22.25;33.63;100338.31;4916112;29;20024;-77
2021/10/01 10:53:04;;;;;;;4.32;1.27;;;;;;;22.21;33.71;100350.63;4910729;29;20376;-76
2021/10/01 10:55:43;;;;;;;11.65;2.00;;;;;;;22.55;33.12;100351.72;4916246;29;20034;-84
2021/10/01 10:58:24;;;;;;;10.30;2.35;;;;;;;22.05;33.31;100351.84;4916269;29;20068;-75
2021/10/01 11:00:56;;;;;;;7.15;1.65;;;;;;;22.47;33.22;100358.53;4896473;29;20032;-76
2021/10/01 11:03:28;;;;;;;6.18;1.58;;;;;;;21.96;33.75;100362.59;4885964;29;20800;-78
2021/10/01 11:06:20;;;;;;;7.78;1.90;;;;;;;22.53;32.50;100358.91;4910679;29;20032;-83
2021/10/01 11:09:10;;;;;;;7.13;1.65;;;;;;;22.62;32.78;100345.34;4910395;29;20115;-88
2021/10/01 11:11:38;;;;;;;6.43;2.13;;;;;;;22.97;32.06;100359.13;4919142;29;20035;-77
2021/10/01 11:14:15;;;;;;;15.75;2.67;;;;;;;23.42;32.35;100359.22;4920663;29;20032;-76
2021/10/01 11:16:43;;;;;;;6.85;1.50;;;;;;;22.87;32.74;100362.75;4919419;29;20115;-79
2021/10/01 11:19:10;;;;;;;9.05;2.08;;;;;;;23.21;32.38;100370.53;4919745;29;20447;-83
2021/10/01 11:21:44;;;;;;;9.32;1.88;;;;;;;22.91;32.00;100373.91;4918412;29;20032;-80
2021/10/01 11:24:18;;;;;;;4.47;1.52;;;;;;;22.86;32.14;100371.53;4920534;29;20024;-80
2021/10/01 11:26:57;;;;;;;7.32;2.40;;;;;;;23.01;31.90;100364.66;4919955;29;20024;-87
2021/10/01 11:29:39;;;;;;;4.13;1.30;;;;;;;23.16;31.89;100355.03;4920100;29;20024;-75
2021/10/01 11:32:25;;;;;;;7.47;2.13;;;;;;;23.14;31.91;100362.22;4919904;29;20475;-76
2021/10/01 11:34:57;;;;;;;9.45;2.30;;;;;;;23.46;31.87;100367.56;4919805;29;20040;-76
2021/10/01 11:37:41;;;;;;;6.30;1.70;;;;;;;23.46;31.79;100354.41;4918409;29;20034;-76
2021/10/01 11:40:08;;;;;;;5.68;1.17;;;;;;;23.01;32.52;100364.66;4919602;29;20064;-79
2021/10/01 11:42:40;;;;;;;6.63;2.47;;;;;;;23.98;31.84;100367.56;4919604;29;20028;-79
2021/10/01 11:45:13;;;;;;;19.50;4.43;;;;;;;23.21;31.93;100364.97;4919821;29;20032;-81
2021/10/01 11:47:50;;;;;;;6.65;1.48;;;;;;;24.05;30.91;100371.06;4919357;29;20036;-85
2021/10/01 11:50:16;;;;;;;6.43;1.73;;;;;;;23.28;31.76;100375.28;4918310;29;20032;-75
2021/10/01 11:52:43;;;;;;;4.35;1.17;;;;;;;23.96;30.90;100369.97;4919093;29;20040;-75
2021/10/01 11:55:10;;;;;;;8.23;1.77;;;;;;;23.50;31.71;100382.25;4917963;29;20028;-85
2021/10/01 11:57:38;;;;;;;4.32;0.95;;;;;;;23.55;31.22;100379.03;4918797;29;20092;-75
2021/10/01 12:00:10;;;;;;;8.90;1.90;;;;;;;23.70;31.93;100385.34;4917756;29;20119;-78
2021/10/01 12:02:39;;;;;;;13.98;2.15;;;;;;;24.00;31.08;100379.09;4918997;29;20036;-75
2021/10/01 12:05:23;;;;;;;10.30;2.70;;;;;;;24.04;30.83;100394.59;4907238;29;20032;-82
2021/10/01 12:08:04;;;;;;;6.32;1.75;;;;;;;24.17;30.44;100389.28;4913669;29;20036;-75
2021/10/01 12:10:33;;;;;;;14.43;2.05;;;;;;;23.68;31.30;100384.97;4904529;29;20032;-77
2021/10/01 12:13:06;;;;;;;9.23;2.55;;;;;;;23.52;30.72;100391.03;4898610;29;20092;-80
2021/10/01 12:15:36;;;;;;;8.93;2.22;;;;;;;23.34;30.69;100387.56;4899590;29;20056;-83
2021/10/01 12:18:02;;;;;;;;;;;;;;;23.26;31.20;100393.19;4911210;29;20063;-77
2021/10/01 12:20:28;;;;;;;9.23;2.45;;;;;;;23.74;30.64;100403.63;4918369;29;20366;-76
2021/10/01 12:22:53;;;;;;;3.78;1.40;;;;;;;23.51;31.12;100406.19;4918480;29;20036;-75
2021/10/01 12:25:25;;;;;;;11.05;3.03;;;;;;;22.95;31.20;100408.09;4918751;29;20119;-80
2021/10/01 12:27:51;;;;;;;5.35;1.63;;;;;;;23.48;30.51;100399.41;4918551;29;20072;-76
2021/10/01 12:30:17;;;;;;;4.88;1.10;;;;;;;23.20;31.01;100403.19;4918894;29;20039;-86
2021/10/01 12:32:47;;;;;;;6.28;1.70;;;;;;;23.68;29.67;100394.13;4936799;29;20032;-81
2021/10/01 12:35:13;;;;;;;;;;;;;;;23.70;29.57;100405.66;4938206;29;20114;-78
2021/10/01 12:37:42;;;;;;;6.60;1.98;;;;;;;23.93;29.53;100404.28;4904032;29;19919;-78
2021/10/01 12:40:10;;;;;;;7.95;2.10;;;;;;;24.44;29.35;100403.41;4899572;29;20088;-79
2021/10/01 12:42:38;;;;;;;2.95;1.40;;;;;;;24.56;29.47;100407.63;4892149;29;20067;-76
2021/10/01 12:45:08;;;;;;;6.22;1.60;;;;;;;23.86;29.96;100412.69;4895969;29;20529;-75
2021/10/01 12:47:36;;;;;;;5.07;1.52;;;;;;;23.64;30.90;100420.44;4887610;29;20060;-79
2021/10/01 12:50:11;;;;;;;9.48;1.88;;;;;;;22.81;34.43;100430.41;4896230;29;20036;-84
2021/10/01 12:52:39;;;;;;;2.72;1.02;;;;;;;22.91;33.87;100440.75;4899577;29;20024;-83
2021/10/01 12:55:15;;;;;;;3.90;1.20;;;;;;;23.20;32.93;100438.59;4902407;29;20055;-77
2021/10/01 12:57:44;;;;;;;2.70;0.80;;;;;;;22.82;32.92;100443.13;4897095;29;20055;-76
2021/10/01 13:00:16;;;;;;;10.95;1.23;;;;;;;22.88;32.88;100442.34;4887255;29;20112;-77
2021/10/01 13:03:00;;;;;;;2.47;0.80;;;;;;;22.91;33.23;100440.75;4901068;29;20036;-75
2021/10/01 13:05:28;;;;;;;6.05;1.83;;;;;;;22.66;33.39;100432.44;4894335;29;20542;-80
2021/10/01 13:07:57;;;;;;;5.60;1.42;;;;;;;23.53;31.82;100442.81;4898678;29;20392;-77
2021/10/01 13:10:30;;;;;;;4.60;1.17;;;;;;;23.95;31.85;100432.53;4900078;29;20036;-77
2021/10/01 13:13:02;;;;;;;5.72;1.52;;;;;;;23.70;32.29;100433.53;4897496;29;20051;-76
2021/10/01 13:15:46;;;;;;;24.27;5.80;;;;;;;23.88;31.35;100424.22;4912293;29;20091;-77
2021/10/01 13:21:02;;;;;;;13.45;1.90;;;;;;;23.63;32.07;100430.00;4917703;29;20141;-77
2021/10/01 13:23:46;;;;;;;6.53;2.22;;;;;;;23.85;30.54;100428.66;4930787;29;20188;-76
2021/10/01 13:26:18;;;;;;;5.05;1.50;;;;;;;24.01;30.08;100428.13;4917599;29;20035;-81
2021/10/01 13:28:48;;;;;;;13.43;3.70;;;;;;;23.40;30.27;100417.38;4913023;29;20118;-75
2021/10/01 13:31:15;;;;;;;8.18;1.55;;;;;;;23.65;29.56;100438.75;4917034;29;20080;-75
2021/10/01 13:33:41;;;;;;;6.85;1.92;;;;;;;23.85;28.89;100430.66;4917410;29;20032;-77
2021/10/01 13:36:07;;;;;;;5.45;1.23;;;;;;;24.00;29.52;100415.38;4917204;29;20043;-81
2021/10/01 13:38:42;;;;;;;2.92;0.90;;;;;;;24.26;29.74;100431.50;4917172;29;20036;-82
2021/10/01 13:41:09;;;;;;;6.45;2.15;;;;;;;24.28;29.63;100429.06;4917610;29;20043;-76
2021/10/01 13:43:36;;;;;;;6.55;1.25;;;;;;;24.72;29.63;100421.84;4914951;29;20040;-78
2021/10/01 13:46:04;;;;;;;7.38;2.53;;;;;;;24.49;29.74;100425.28;4902082;29;20132;-84
2021/10/01 13:48:31;;;;;;;7.53;2.10;;;;;;;24.24;29.76;100430.28;4900960;29;20065;-81
2021/10/01 13:50:58;;;;;;;12.50;3.05;;;;;;;24.45;29.84;100435.69;4903835;29;20048;-77
2021/10/01 13:53:25;;;;;;;7.07;2.08;;;;;;;24.05;30.60;100432.47;4901066;29;20032;-76
2021/10/01 13:55:54;;;;;;;7.00;1.40;;;;;;;23.75;31.03;100437.91;4900995;29;20052;-79
2021/10/01 13:58:21;;;;;;;5.95;1.80;;;;;;;23.42;31.72;100440.06;4903299;29;20119;-77
2021/10/01 14:00:48;;;;;;;12.15;2.58;;;;;;;24.17;30.78;100436.72;4905543;29;20403;-78
2021/10/01 14:03:15;;;;;;;6.20;1.80;;;;;;;24.21;30.54;100443.09;4893296;29;20024;-78
2021/10/01 14:05:42;;;;;;;13.07;1.88;;;;;;;23.78;31.62;100426.72;4911137;29;20486;-77
2021/10/01 14:08:08;;;;;;;13.05;3.22;;;;;;;24.49;30.62;100424.50;4906374;29;20299;-76
2021/10/01 14:10:36;;;;;;;13.32;2.67;;;;;;;24.52;31.52;100437.63;4909776;29;20051;-81
2021/10/01 14:13:06;;;;;;;13.27;2.13;;;;;;;24.50;30.79;100438.03;4907945;29;20036;-75
2021/10/01 14:15:33;;;;;;;9.80;2.50;;;;;;;24.21;30.48;100431.91;4906378;29;20020;-77
2021/10/01 14:17:59;;;;;;;10.55;2.50;;;;;;;24.07;29.76;100430.06;4908086;29;20033;-82
2021/10/01 14:20:29;;;;;;;9.20;1.90;;;;;;;23.75;30.27;100432.31;4903687;29;20044;-76
2021/10/01 14:22:55;;;;;;;7.78;1.95;;;;;;;23.94;29.91;100420.59;4925816;29;20028;-74
2021/10/01 14:25:23;;;;;;;11.65;2.05;;;;;;;23.87;30.14;100431.03;4917731;29;20040;-78
2021/10/01 14:27:49;;;;;;;13.60;2.83;;;;;;;24.34;30.15;100435.81;4895684;29;20048;-85
2021/10/01 14:30:18;;;;;;;10.82;2.38;;;;;;;23.88;30.25;100424.22;4887296;29;20566;-75
2021/10/01 14:32:46;;;;;;;9.33;1.60;;;;;;;24.29;29.41;100424.28;4894659;29;20079;-74
2021/10/01 14:35:13;;;;;;;3.83;1.30;;;;;;;24.23;28.96;100426.72;4898743;29;20028;-72
2021/10/01 14:37:40;;;;;;;6.32;1.45;;;;;;;24.02;28.99;100410.94;4893871;29;20024;-73
2021/10/01 14:40:08;;;;;;;6.18;1.27;;;;;;;24.37;28.15;100419.44;4898551;29;20028;-88
2021/10/01 14:42:35;;;;;;;5.93;2.35;;;;;;;24.33;27.87;100405.50;4904389;29;20040;-85
2021/10/01 14:45:01;;;;;;;4.97;1.38;;;;;;;24.06;28.22;100419.31;4898257;29;20139;-76
2021/10/01 14:47:30;;;;;;;4.55;1.33;;;;;;;23.59;28.70;100396.56;4897564;29;20509;-83
2021/10/01 14:50:00;;;;;;;3.45;1.13;;;;;;;23.93;27.97;100415.44;4894630;29;20102;-85
2021/10/01 14:52:26;;;;;;;5.03;1.40;;;;;;;23.93;28.12;100419.00;4896386;29;20032;-77
2021/10/01 14:54:53;;;;;;;3.25;1.20;;;;;;;23.37;28.63;100417.41;4900825;29;20107;-76
2021/10/01 14:57:19;;;;;;;7.50;1.80;;;;;;;23.83;28.33;100405.97;4904886;29;20028;-83
2021/10/01 14:59:46;;;;;;;6.05;2.00;;;;;;;23.68;28.65;100424.81;4904004;29;20107;-76
2021/10/01 15:02:14;;;;;;;7.57;1.50;;;;;;;23.81;28.59;100422.31;4888917;29;20132;-79
2021/10/01 15:04:47;;;;;;;4.60;1.30;;;;;;;23.47;28.26;100408.19;4906241;29;20450;-81
2021/10/01 15:07:14;;;;;;;6.13;1.20;;;;;;;23.68;28.25;100438.75;4894554;29;20583;-85
2021/10/01 15:09:40;;;;;;;5.78;1.30;;;;;;;24.03;28.22;100437.69;4889704;29;20499;-76
2021/10/01 15:12:07;;;;;;;6.82;1.70;;;;;;;23.29;29.02;100429.81;4891268;29;20032;-76
2021/10/01 15:14:33;;;;;;;19.60;3.40;;;;;;;23.43;28.94;100427.75;4901322;29;20052;-78
2021/10/01 15:16:59;;;;;;;2.95;1.25;;;;;;;23.37;28.67;100428.56;4888078;29;20052;-75
2021/10/01 15:19:25;;;;;;;8.25;1.55;;;;;;;23.44;28.51;100434.91;4886140;29;20033;-75
2021/10/01 15:21:51;;;;;;;7.85;2.05;;;;;;;23.03;28.29;100420.78;4902102;29;20117;-78
2021/10/01 15:24:17;;;;;;;8.68;2.55;;;;;;;23.18;28.16;100429.84;4893795;29;20083;-74
2021/10/01 15:26:43;;;;;;;5.95;1.80;;;;;;;23.11;28.27;100416.75;4887825;29;20047;-79
2021/10/01 15:29:09;;;;;;;4.72;1.30;;;;;;;23.14;28.55;100424.31;4902430;29;20032;-76
2021/10/01 15:31:35;;;;;;;5.05;1.35;;;;;;;22.67;28.33;100425.66;4922196;29;20040;-80
2021/10/01 15:34:02;;;;;;;9.23;2.08;;;;;;;23.03;28.29;100436.69;4922270;29;20032;-82
2021/10/01 15:36:29;;;;;;;13.15;1.80;;;;;;;22.91;28.15;100437.97;4922223;29;20087;-74
2021/10/01 15:38:56;;;;;;;5.88;1.10;;;;;;;22.83;28.36;100439.94;4921326;29;20029;-78
2021/10/01 15:41:21;;;;;;;6.15;1.85;;;;;;;22.58;28.73;100450.34;4922348;29;20471;-79
2021/10/01 15:43:47;;;;;;;6.97;1.67;;;;;;;22.97;28.36;100433.53;4922289;29;20024;-75
2021/10/01 15:46:13;;;;;;;7.22;2.38;;;;;;;23.52;28.12;100435.66;4921851;29;20035;-76
2021/10/01 15:48:40;;;;;;;4.43;1.35;;;;;;;23.22;28.52;100434.22;4923710;29;20154;-79
2021/10/01 15:51:06;;;;;;;7.95;2.53;;;;;;;23.17;28.74;100433.84;4919030;29;20047;-82
2021/10/01 15:53:33;;;;;;;7.38;1.92;;;;;;;23.44;28.50;100442.47;4919303;29;20039;-79
2021/10/01 15:55:59;;;;;;;8.80;2.30;;;;;;;23.00;28.58;100432.75;4918915;29;20036;-78
2021/10/01 15:58:25;;;;;;;4.05;1.55;;;;;;;23.08;28.44;100436.28;4899908;29;20056;-80
2021/10/01 16:00:50;;;;;;;6.03;1.60;;;;;;;23.51;27.88;100437.66;4900213;29;20062;-76
2021/10/01 16:03:16;;;;;;;8.98;1.83;;;;;;;23.64;28.02;100424.03;4900707;29;20443;-76
2021/10/01 16:05:43;;;;;;;4.72;1.40;;;;;;;22.90;29.38;100434.38;4900617;29;20103;-75
2021/10/01 16:08:10;;;;;;;8.60;1.95;;;;;;;23.40;28.85;100444.47;4900379;29;20028;-77
2021/10/01 16:10:38;;;;;;;6.88;1.25;;;;;;;22.78;29.87;100425.63;4919671;29;20483;-76
2021/10/01 16:13:04;;;;;;;5.88;1.23;;;;;;;23.21;29.29;100437.44;4913511;29;20070;-77
2021/10/01 16:15:31;;;;;;;6.30;1.67;;;;;;;23.33;29.50;100438.94;4919225;29;20107;-83
2021/10/01 16:17:56;;;;;;;9.57;2.22;;;;;;;22.93;29.96;100433.56;4918669;29;20123;-74
2021/10/01 16:20:27;;;;;;;4.60;1.20;;;;;;;23.11;28.93;100433.47;4918553;29;20111;-77
2021/10/01 16:22:53;;;;;;;10.63;2.35;;;;;;;22.52;29.64;100447.22;4918633;29;20390;-83
2021/10/01 16:25:22;;;;;;;6.35;1.55;;;;;;;23.01;29.11;100448.25;4918615;29;20032;-77
2021/10/01 16:27:48;;;;;;;9.82;2.17;;;;;;;23.22;28.58;100439.81;4918450;29;20039;-82
2021/10/01 16:30:14;;;;;;;7.38;1.92;;;;;;;22.83;29.03;100445.53;4918314;29;20111;-74
2021/10/01 16:32:40;;;;;;;5.78;2.13;;;;;;;22.91;28.62;100444.31;4918541;29;20029;-74
2021/10/01 16:35:07;;;;;;;7.60;1.80;;;;;;;22.21;29.40;100451.59;4918488;29;20020;-74
2021/10/01 16:37:32;;;;;;;3.42;1.10;;;;;;;22.43;29.55;100432.88;4918343;29;20118;-77
2021/10/01 16:39:59;;;;;;;5.50;1.65;;;;;;;22.74;29.13;100447.91;4918294;29;20099;-81
2021/10/01 16:42:26;;;;;;;5.68;1.42;;;;;;;22.62;29.47;100443.59;4918459;29;20479;-73
2021/10/01 16:44:52;;;;;;;6.85;2.10;;;;;;;22.98;29.11;100446.28;4918057;29;20436;-73
2021/10/01 16:47:18;;;;;;;8.40;1.55;;;;;;;22.22;29.93;100450.44;4918081;29;20476;-79
2021/10/01 16:49:44;;;;;;;7.07;1.30;;;;;;;22.46;29.79;100445.22;4917994;29;20039;-75
2021/10/01 16:52:10;;;;;;;5.63;1.92;;;;;;;22.33;30.40;100456.78;4918135;29;20035;-74
2021/10/01 16:54:37;;;;;;;7.15;1.67;;;;;;;22.43;30.02;100444.81;4918031;29;20024;-73
2021/10/01 16:57:06;;;;;;;5.03;1.50;;;;;;;22.69;29.58;100460.28;4917754;29;20466;-74